KDXR/DXR METAR and TAF weather

Enter ICAO airport designator
Station Type Date Time Source
KDXR METAR 2019/05/27 08:53 UTC NOAA

KDXR 270853Z AUTO 23005KT 10SM CLR 14/11 A2992 RMK AO2 SLP127 T01390106 53009


Station Type Date Time Source
KDXR Decoded METAR 2019/05/27 08:53 UTC NOAA

DANBURY MUNICIPAL AIRPORT, CT, United States (KDXR) 41-22N 073-29W 139M
May 27, 2019 - 04:53 AM EDT / 2019.05.27 0853 UTC
Wind: from the SW (230 degrees) at 6 MPH (5 KT):0
Visibility: 10 mile(s):0
Sky conditions: clear
Temperature: 57.0 F (13.9 C)
Dew Point: 51.1 F (10.6 C)
Relative Humidity: 80%
Pressure (altimeter): 29.92 in. Hg (1013 hPa)
Pressure tendency: 0.03 inches (0.9 hPa) higher than three hours ago
ob: KDXR 270853Z AUTO 23005KT 10SM CLR 14/11 A2992 RMK AO2 SLP127 T01390106 53009
cycle: 9

Station Type Date Time Source
KDXR TAF UTC NOAA

Error!

Example: see airport list